sensor_id;sensor_type;location;lat;lon;timestamp;P1;durP1;ratioP1;P2;durP2;ratioP2
3873;SDS011;1952;50.872;6.692;2022-09-09T00:30:54;2.20;;;1.83;;
3873;SDS011;1952;50.872;6.692;2022-09-09T00:33:24;2.80;;;2.10;;
3873;SDS011;1952;50.872;6.692;2022-09-09T00:35:54;2.80;;;2.00;;
3873;SDS011;1952;50.872;6.692;2022-09-09T00:38:31;2.23;;;2.03;;
3873;SDS011;1952;50.872;6.692;2022-09-09T00:41:05;2.07;;;1.73;;
3873;SDS011;1952;50.872;6.692;2022-09-09T00:43:39;2.60;;;1.90;;
3873;SDS011;1952;50.872;6.692;2022-09-09T00:49:08;4.67;;;2.27;;
3873;SDS011;1952;50.872;6.692;2022-09-09T00:51:48;3.73;;;2.00;;
3873;SDS011;1952;50.872;6.692;2022-09-09T00:54:33;2.43;;;2.23;;
3873;SDS011;1952;50.872;6.692;2022-09-09T00:57:22;2.37;;;1.97;;
3873;SDS011;1952;50.872;6.692;2022-09-09T01:00:15;1.83;;;1.73;;
3873;SDS011;1952;50.872;6.692;2022-09-09T01:02:58;2.40;;;1.90;;
3873;SDS011;1952;50.872;6.692;2022-09-09T01:05:39;7.43;;;2.17;;
3873;SDS011;1952;50.872;6.692;2022-09-09T01:08:23;1.90;;;1.53;;
3873;SDS011;1952;50.872;6.692;2022-09-09T01:11:02;3.70;;;1.80;;
3873;SDS011;1952;50.872;6.692;2022-09-09T01:13:38;1.93;;;1.83;;
3873;SDS011;1952;50.872;6.692;2022-09-09T01:16:10;2.93;;;2.20;;
3873;SDS011;1952;50.872;6.692;2022-09-09T01:18:43;2.30;;;1.83;;
3873;SDS011;1952;50.872;6.692;2022-09-09T01:21:20;1.93;;;1.70;;
3873;SDS011;1952;50.872;6.692;2022-09-09T01:24:00;5.13;;;1.70;;
3873;SDS011;1952;50.872;6.692;2022-09-09T01:26:42;2.40;;;1.70;;
3873;SDS011;1952;50.872;6.692;2022-09-09T01:29:11;2.80;;;1.70;;
3873;SDS011;1952;50.872;6.692;2022-09-09T01:31:52;2.90;;;1.70;;
3873;SDS011;1952;50.872;6.692;2022-09-09T01:34:26;4.20;;;1.80;;
3873;SDS011;1952;50.872;6.692;2022-09-09T01:36:59;3.30;;;1.93;;
3873;SDS011;1952;50.872;6.692;2022-09-09T01:39:30;2.40;;;2.20;;
3873;SDS011;1952;50.872;6.692;2022-09-09T01:42:00;1.97;;;1.73;;
3873;SDS011;1952;50.872;6.692;2022-09-09T01:44:35;2.63;;;1.80;;
3873;SDS011;1952;50.872;6.692;2022-09-09T01:47:08;2.00;;;1.80;;
3873;SDS011;1952;50.872;6.692;2022-09-09T01:49:37;3.00;;;1.87;;
3873;SDS011;1952;50.872;6.692;2022-09-09T01:52:10;1.90;;;1.80;;
3873;SDS011;1952;50.872;6.692;2022-09-09T01:54:43;3.63;;;2.43;;
3873;SDS011;1952;50.872;6.692;2022-09-09T01:57:15;3.93;;;1.87;;
3873;SDS011;1952;50.872;6.692;2022-09-09T01:59:56;1.60;;;1.50;;
3873;SDS011;1952;50.872;6.692;2022-09-09T02:02:33;4.10;;;2.10;;
3873;SDS011;1952;50.872;6.692;2022-09-09T02:05:12;2.30;;;1.80;;
3873;SDS011;1952;50.872;6.692;2022-09-09T02:07:50;5.20;;;1.90;;
3873;SDS011;1952;50.872;6.692;2022-09-09T02:10:24;3.43;;;1.90;;
3873;SDS011;1952;50.872;6.692;2022-09-09T02:12:55;5.03;;;2.30;;
3873;SDS011;1952;50.872;6.692;2022-09-09T02:15:35;2.80;;;2.10;;
3873;SDS011;1952;50.872;6.692;2022-09-09T02:18:15;2.30;;;2.00;;
3873;SDS011;1952;50.872;6.692;2022-09-09T02:20:49;2.70;;;2.50;;
3873;SDS011;1952;50.872;6.692;2022-09-09T02:23:20;2.93;;;2.73;;
3873;SDS011;1952;50.872;6.692;2022-09-09T02:25:49;4.53;;;2.40;;
3873;SDS011;1952;50.872;6.692;2022-09-09T02:28:20;3.77;;;2.40;;
3873;SDS011;1952;50.872;6.692;2022-09-09T02:30:56;2.43;;;2.20;;
3873;SDS011;1952;50.872;6.692;2022-09-09T02:33:26;3.17;;;2.73;;
3873;SDS011;1952;50.872;6.692;2022-09-09T02:35:55;4.50;;;2.13;;
3873;SDS011;1952;50.872;6.692;2022-09-09T02:38:36;4.00;;;2.23;;
3873;SDS011;1952;50.872;6.692;2022-09-09T02:41:07;6.30;;;2.90;;
3873;SDS011;1952;50.872;6.692;2022-09-09T02:43:37;5.00;;;2.63;;
3873;SDS011;1952;50.872;6.692;2022-09-09T02:46:14;5.03;;;2.33;;
3873;SDS011;1952;50.872;6.692;2022-09-09T02:48:58;5.00;;;2.90;;
3873;SDS011;1952;50.872;6.692;2022-09-09T02:51:30;3.77;;;2.50;;
3873;SDS011;1952;50.872;6.692;2022-09-09T02:54:09;2.70;;;2.50;;
3873;SDS011;1952;50.872;6.692;2022-09-09T02:56:46;2.80;;;2.50;;
3873;SDS011;1952;50.872;6.692;2022-09-09T02:59:26;3.80;;;2.60;;
3873;SDS011;1952;50.872;6.692;2022-09-09T03:02:00;4.80;;;4.40;;
3873;SDS011;1952;50.872;6.692;2022-09-09T03:04:29;3.90;;;3.40;;
3873;SDS011;1952;50.872;6.692;2022-09-09T03:06:57;3.40;;;3.13;;
3873;SDS011;1952;50.872;6.692;2022-09-09T03:09:25;4.50;;;2.70;;
3873;SDS011;1952;50.872;6.692;2022-09-09T03:11:54;3.57;;;2.80;;
3873;SDS011;1952;50.872;6.692;2022-09-09T03:14:28;2.83;;;2.63;;
3873;SDS011;1952;50.872;6.692;2022-09-09T03:16:57;3.13;;;2.27;;
3873;SDS011;1952;50.872;6.692;2022-09-09T03:19:27;4.00;;;3.10;;
3873;SDS011;1952;50.872;6.692;2022-09-09T03:21:56;5.47;;;2.90;;
3873;SDS011;1952;50.872;6.692;2022-09-09T03:24:24;6.90;;;3.10;;
3873;SDS011;1952;50.872;6.692;2022-09-09T03:26:57;5.03;;;2.77;;
3873;SDS011;1952;50.872;6.692;2022-09-09T03:29:25;2.43;;;2.23;;
3873;SDS011;1952;50.872;6.692;2022-09-09T03:31:54;2.63;;;2.27;;
3873;SDS011;1952;50.872;6.692;2022-09-09T03:34:22;6.50;;;3.20;;
3873;SDS011;1952;50.872;6.692;2022-09-09T03:36:50;3.83;;;3.10;;
3873;SDS011;1952;50.872;6.692;2022-09-09T03:39:18;3.70;;;2.10;;
3873;SDS011;1952;50.872;6.692;2022-09-09T03:41:52;2.60;;;2.40;;
3873;SDS011;1952;50.872;6.692;2022-09-09T03:44:20;7.07;;;2.70;;
3873;SDS011;1952;50.872;6.692;2022-09-09T03:46:55;5.03;;;2.83;;
3873;SDS011;1952;50.872;6.692;2022-09-09T03:49:29;5.43;;;2.47;;
3873;SDS011;1952;50.872;6.692;2022-09-09T03:51:57;2.90;;;2.23;;
3873;SDS011;1952;50.872;6.692;2022-09-09T03:54:27;4.23;;;2.10;;
3873;SDS011;1952;50.872;6.692;2022-09-09T03:57:01;4.10;;;2.70;;
3873;SDS011;1952;50.872;6.692;2022-09-09T03:59:29;3.00;;;2.77;;
3873;SDS011;1952;50.872;6.692;2022-09-09T04:02:00;5.87;;;3.07;;
3873;SDS011;1952;50.872;6.692;2022-09-09T04:04:28;3.07;;;2.30;;
3873;SDS011;1952;50.872;6.692;2022-09-09T04:06:57;4.77;;;3.00;;
3873;SDS011;1952;50.872;6.692;2022-09-09T04:09:30;3.97;;;2.60;;
3873;SDS011;1952;50.872;6.692;2022-09-09T04:12:01;3.93;;;2.50;;
3873;SDS011;1952;50.872;6.692;2022-09-09T04:14:30;5.00;;;3.30;;
3873;SDS011;1952;50.872;6.692;2022-09-09T04:17:00;4.40;;;2.73;;
3873;SDS011;1952;50.872;6.692;2022-09-09T04:19:32;5.00;;;2.43;;
3873;SDS011;1952;50.872;6.692;2022-09-09T04:22:05;3.87;;;2.30;;
3873;SDS011;1952;50.872;6.692;2022-09-09T04:24:39;3.63;;;2.50;;
3873;SDS011;1952;50.872;6.692;2022-09-09T04:27:13;5.23;;;2.87;;
3873;SDS011;1952;50.872;6.692;2022-09-09T04:29:50;4.50;;;2.73;;
3873;SDS011;1952;50.872;6.692;2022-09-09T04:32:21;2.67;;;2.50;;
3873;SDS011;1952;50.872;6.692;2022-09-09T04:34:53;2.97;;;2.70;;
3873;SDS011;1952;50.872;6.692;2022-09-09T04:37:21;5.63;;;3.90;;
3873;SDS011;1952;50.872;6.692;2022-09-09T04:39:52;6.43;;;3.00;;
3873;SDS011;1952;50.872;6.692;2022-09-09T04:42:26;3.20;;;2.30;;
3873;SDS011;1952;50.872;6.692;2022-09-09T04:44:59;2.67;;;2.20;;
3873;SDS011;1952;50.872;6.692;2022-09-09T04:47:29;4.37;;;2.57;;
3873;SDS011;1952;50.872;6.692;2022-09-09T04:49:58;5.73;;;2.67;;
3873;SDS011;1952;50.872;6.692;2022-09-09T04:52:26;6.13;;;2.30;;
3873;SDS011;1952;50.872;6.692;2022-09-09T04:54:57;4.90;;;2.70;;
3873;SDS011;1952;50.872;6.692;2022-09-09T04:57:26;4.57;;;2.73;;
3873;SDS011;1952;50.872;6.692;2022-09-09T04:59:59;5.27;;;2.30;;
3873;SDS011;1952;50.872;6.692;2022-09-09T05:02:33;3.07;;;2.77;;
3873;SDS011;1952;50.872;6.692;2022-09-09T05:05:06;8.30;;;2.50;;
3873;SDS011;1952;50.872;6.692;2022-09-09T05:07:39;4.83;;;2.60;;
3873;SDS011;1952;50.872;6.692;2022-09-09T05:10:09;10.67;;;3.27;;
3873;SDS011;1952;50.872;6.692;2022-09-09T05:12:41;2.63;;;2.10;;
3873;SDS011;1952;50.872;6.692;2022-09-09T05:15:14;3.10;;;2.27;;
3873;SDS011;1952;50.872;6.692;2022-09-09T05:20:34;3.60;;;2.03;;
3873;SDS011;1952;50.872;6.692;2022-09-09T05:23:08;5.10;;;3.03;;
3873;SDS011;1952;50.872;6.692;2022-09-09T05:25:55;5.10;;;2.03;;
3873;SDS011;1952;50.872;6.692;2022-09-09T05:28:43;5.10;;;2.30;;
3873;SDS011;1952;50.872;6.692;2022-09-09T05:31:39;5.47;;;2.50;;
3873;SDS011;1952;50.872;6.692;2022-09-09T05:34:38;2.40;;;2.20;;
3873;SDS011;1952;50.872;6.692;2022-09-09T05:37:07;4.40;;;2.63;;
3873;SDS011;1952;50.872;6.692;2022-09-09T05:39:37;2.60;;;1.80;;
3873;SDS011;1952;50.872;6.692;2022-09-09T05:42:06;1.83;;;1.73;;
3873;SDS011;1952;50.872;6.692;2022-09-09T05:44:49;4.47;;;2.03;;
3873;SDS011;1952;50.872;6.692;2022-09-09T05:47:50;3.63;;;2.80;;
3873;SDS011;1952;50.872;6.692;2022-09-09T05:50:23;2.60;;;2.00;;
3873;SDS011;1952;50.872;6.692;2022-09-09T05:52:58;6.00;;;2.27;;
3873;SDS011;1952;50.872;6.692;2022-09-09T06:33:38;3.40;;;2.40;;
3873;SDS011;1952;50.872;6.692;2022-09-09T06:36:10;3.60;;;2.37;;
3873;SDS011;1952;50.872;6.692;2022-09-09T06:38:55;4.03;;;2.10;;
3873;SDS011;1952;50.872;6.692;2022-09-09T06:41:26;3.03;;;2.30;;
3873;SDS011;1952;50.872;6.692;2022-09-09T06:44:09;3.03;;;1.43;;
3873;SDS011;1952;50.872;6.692;2022-09-09T06:46:57;3.50;;;2.37;;
3873;SDS011;1952;50.872;6.692;2022-09-09T06:49:38;3.07;;;2.10;;
3873;SDS011;1952;50.872;6.692;2022-09-09T06:52:11;2.90;;;2.13;;
3873;SDS011;1952;50.872;6.692;2022-09-09T06:54:40;5.43;;;2.30;;
3873;SDS011;1952;50.872;6.692;2022-09-09T06:57:23;4.00;;;2.03;;
3873;SDS011;1952;50.872;6.692;2022-09-09T07:00:07;3.63;;;2.27;;
3873;SDS011;1952;50.872;6.692;2022-09-09T07:03:03;6.00;;;2.23;;
3873;SDS011;1952;50.872;6.692;2022-09-09T07:05:34;2.77;;;1.87;;
3873;SDS011;1952;50.872;6.692;2022-09-09T07:08:03;4.60;;;2.40;;
3873;SDS011;1952;50.872;6.692;2022-09-09T07:10:48;5.37;;;1.90;;
3873;SDS011;1952;50.872;6.692;2022-09-09T07:13:44;4.60;;;1.73;;
3873;SDS011;1952;50.872;6.692;2022-09-09T07:16:13;2.80;;;1.87;;
3873;SDS011;1952;50.872;6.692;2022-09-09T07:19:00;3.30;;;2.30;;
3873;SDS011;1952;50.872;6.692;2022-09-09T07:22:06;3.27;;;1.73;;
3873;SDS011;1952;50.872;6.692;2022-09-09T07:24:36;4.07;;;2.67;;
3873;SDS011;1952;50.872;6.692;2022-09-09T07:27:05;2.70;;;1.90;;
3873;SDS011;1952;50.872;6.692;2022-09-09T07:29:51;5.07;;;2.10;;
3873;SDS011;1952;50.872;6.692;2022-09-09T07:32:47;2.50;;;2.30;;
3873;SDS011;1952;50.872;6.692;2022-09-09T07:35:33;2.57;;;1.53;;
3873;SDS011;1952;50.872;6.692;2022-09-09T07:41:36;3.27;;;1.70;;
3873;SDS011;1952;50.872;6.692;2022-09-09T07:44:10;3.47;;;1.83;;
3873;SDS011;1952;50.872;6.692;2022-09-09T07:47:14;4.77;;;2.70;;
3873;SDS011;1952;50.872;6.692;2022-09-09T07:50:11;2.07;;;1.50;;
3873;SDS011;1952;50.872;6.692;2022-09-09T07:52:45;3.00;;;1.80;;
3873;SDS011;1952;50.872;6.692;2022-09-09T07:55:29;4.30;;;2.30;;
3873;SDS011;1952;50.872;6.692;2022-09-09T08:01:29;3.27;;;1.93;;
3873;SDS011;1952;50.872;6.692;2022-09-09T08:04:34;3.43;;;2.23;;
3873;SDS011;1952;50.872;6.692;2022-09-09T08:07:04;4.73;;;1.90;;
3873;SDS011;1952;50.872;6.692;2022-09-09T08:09:53;3.80;;;1.87;;
3873;SDS011;1952;50.872;6.692;2022-09-09T08:12:36;2.40;;;2.00;;
3873;SDS011;1952;50.872;6.692;2022-09-09T08:18:14;3.33;;;1.70;;
3873;SDS011;1952;50.872;6.692;2022-09-09T08:20:43;2.60;;;2.20;;
3873;SDS011;1952;50.872;6.692;2022-09-09T08:23:40;2.00;;;1.50;;
3873;SDS011;1952;50.872;6.692;2022-09-09T08:26:14;2.93;;;2.00;;
3873;SDS011;1952;50.872;6.692;2022-09-09T08:29:12;8.43;;;2.10;;
3873;SDS011;1952;50.872;6.692;2022-09-09T08:31:59;2.70;;;1.93;;
3873;SDS011;1952;50.872;6.692;2022-09-09T08:34:28;3.07;;;1.77;;
3873;SDS011;1952;50.872;6.692;2022-09-09T08:37:24;2.90;;;1.47;;
3873;SDS011;1952;50.872;6.692;2022-09-09T08:40:09;1.73;;;1.63;;
3873;SDS011;1952;50.872;6.692;2022-09-09T08:43:10;6.33;;;1.80;;
3873;SDS011;1952;50.872;6.692;2022-09-09T08:45:55;3.67;;;1.73;;
3873;SDS011;1952;50.872;6.692;2022-09-09T08:51:57;3.20;;;1.80;;
3873;SDS011;1952;50.872;6.692;2022-09-09T08:54:38;5.40;;;1.70;;
3873;SDS011;1952;50.872;6.692;2022-09-09T08:57:21;1.93;;;1.63;;
3873;SDS011;1952;50.872;6.692;2022-09-09T09:00:12;2.20;;;1.50;;
3873;SDS011;1952;50.872;6.692;2022-09-09T09:03:11;2.00;;;1.70;;
3873;SDS011;1952;50.872;6.692;2022-09-09T09:05:53;1.70;;;1.60;;
3873;SDS011;1952;50.872;6.692;2022-09-09T09:11:54;3.23;;;1.60;;
3873;SDS011;1952;50.872;6.692;2022-09-09T09:14:52;2.17;;;1.43;;
3873;SDS011;1952;50.872;6.692;2022-09-09T09:17:38;2.50;;;1.50;;
3873;SDS011;1952;50.872;6.692;2022-09-09T09:20:38;3.90;;;1.90;;
3873;SDS011;1952;50.872;6.692;2022-09-09T09:23:21;1.77;;;1.57;;
3873;SDS011;1952;50.872;6.692;2022-09-09T09:28:55;2.17;;;1.97;;
3873;SDS011;1952;50.872;6.692;2022-09-09T09:31:26;5.30;;;2.73;;
3873;SDS011;1952;50.872;6.692;2022-09-09T09:34:18;3.93;;;1.53;;
3873;SDS011;1952;50.872;6.692;2022-09-09T09:37:34;4.30;;;1.50;;
3873;SDS011;1952;50.872;6.692;2022-09-09T09:40:18;1.63;;;1.53;;
3873;SDS011;1952;50.872;6.692;2022-09-09T09:46:21;2.20;;;1.33;;
3873;SDS011;1952;50.872;6.692;2022-09-09T09:49:01;2.67;;;1.80;;
3873;SDS011;1952;50.872;6.692;2022-09-09T09:51:32;2.40;;;1.60;;
3873;SDS011;1952;50.872;6.692;2022-09-09T09:54:09;2.07;;;1.43;;
3873;SDS011;1952;50.872;6.692;2022-09-09T09:57:07;1.40;;;1.30;;
3873;SDS011;1952;50.872;6.692;2022-09-09T09:59:36;3.20;;;1.40;;
3873;SDS011;1952;50.872;6.692;2022-09-09T10:02:15;3.93;;;1.50;;
3873;SDS011;1952;50.872;6.692;2022-09-09T10:04:44;2.47;;;1.90;;
3873;SDS011;1952;50.872;6.692;2022-09-09T10:07:15;2.87;;;1.80;;
3873;SDS011;1952;50.872;6.692;2022-09-09T10:09:46;2.33;;;1.77;;
3873;SDS011;1952;50.872;6.692;2022-09-09T10:12:24;2.30;;;1.30;;
3873;SDS011;1952;50.872;6.692;2022-09-09T10:15:07;2.33;;;1.70;;
3873;SDS011;1952;50.872;6.692;2022-09-09T10:17:49;3.23;;;1.73;;
3873;SDS011;1952;50.872;6.692;2022-09-09T10:20:38;1.97;;;1.83;;
3873;SDS011;1952;50.872;6.692;2022-09-09T10:23:18;2.30;;;1.57;;
3873;SDS011;1952;50.872;6.692;2022-09-09T10:26:00;2.00;;;1.67;;
3873;SDS011;1952;50.872;6.692;2022-09-09T10:28:37;1.97;;;1.60;;
3873;SDS011;1952;50.872;6.692;2022-09-09T10:31:12;1.77;;;1.43;;
3873;SDS011;1952;50.872;6.692;2022-09-09T10:33:51;2.07;;;1.77;;
3873;SDS011;1952;50.872;6.692;2022-09-09T10:36:28;2.83;;;1.97;;
3873;SDS011;1952;50.872;6.692;2022-09-09T10:38:59;4.07;;;2.07;;
3873;SDS011;1952;50.872;6.692;2022-09-09T10:41:42;2.40;;;1.53;;
3873;SDS011;1952;50.872;6.692;2022-09-09T10:44:22;2.50;;;1.40;;
3873;SDS011;1952;50.872;6.692;2022-09-09T10:47:08;4.10;;;1.83;;
3873;SDS011;1952;50.872;6.692;2022-09-09T10:50:01;1.43;;;1.33;;
3873;SDS011;1952;50.872;6.692;2022-09-09T10:52:46;1.93;;;1.57;;
3873;SDS011;1952;50.872;6.692;2022-09-09T10:55:33;3.53;;;1.73;;
3873;SDS011;1952;50.872;6.692;2022-09-09T10:58:10;2.33;;;1.47;;
3873;SDS011;1952;50.872;6.692;2022-09-09T11:00:41;2.50;;;1.50;;
3873;SDS011;1952;50.872;6.692;2022-09-09T11:03:18;2.97;;;1.60;;
3873;SDS011;1952;50.872;6.692;2022-09-09T11:06:04;2.23;;;1.70;;
3873;SDS011;1952;50.872;6.692;2022-09-09T11:08:47;1.97;;;1.77;;
3873;SDS011;1952;50.872;6.692;2022-09-09T11:11:22;3.30;;;1.77;;
3873;SDS011;1952;50.872;6.692;2022-09-09T11:13:55;2.67;;;1.70;;
3873;SDS011;1952;50.872;6.692;2022-09-09T11:16:47;1.73;;;1.43;;
3873;SDS011;1952;50.872;6.692;2022-09-09T11:19:21;3.77;;;2.30;;
3873;SDS011;1952;50.872;6.692;2022-09-09T11:21:54;4.13;;;1.60;;
3873;SDS011;1952;50.872;6.692;2022-09-09T11:24:26;1.90;;;1.70;;
3873;SDS011;1952;50.872;6.692;2022-09-09T11:26:57;2.43;;;1.70;;
3873;SDS011;1952;50.872;6.692;2022-09-09T11:32:41;3.73;;;1.50;;
3873;SDS011;1952;50.872;6.692;2022-09-09T11:35:21;2.40;;;1.73;;
3873;SDS011;1952;50.872;6.692;2022-09-09T11:38:02;2.30;;;1.60;;
3873;SDS011;1952;50.872;6.692;2022-09-09T11:40:32;3.60;;;1.63;;
3873;SDS011;1952;50.872;6.692;2022-09-09T11:43:08;2.97;;;1.60;;
3873;SDS011;1952;50.872;6.692;2022-09-09T11:45:39;3.80;;;1.80;;
3873;SDS011;1952;50.872;6.692;2022-09-09T11:48:21;1.40;;;1.20;;
3873;SDS011;1952;50.872;6.692;2022-09-09T11:50:58;2.43;;;2.10;;
3873;SDS011;1952;50.872;6.692;2022-09-09T11:53:28;2.63;;;1.70;;
3873;SDS011;1952;50.872;6.692;2022-09-09T12:46:42;2.60;;;1.43;;
3873;SDS011;1952;50.872;6.692;2022-09-09T12:49:23;3.33;;;1.60;;
3873;SDS011;1952;50.872;6.692;2022-09-09T12:52:13;2.93;;;2.70;;
3873;SDS011;1952;50.872;6.692;2022-09-09T12:55:16;3.83;;;1.90;;
3873;SDS011;1952;50.872;6.692;2022-09-09T12:58:14;2.50;;;1.17;;
3873;SDS011;1952;50.872;6.692;2022-09-09T13:00:55;1.50;;;1.30;;
3873;SDS011;1952;50.872;6.692;2022-09-09T13:03:42;1.77;;;1.67;;
3873;SDS011;1952;50.872;6.692;2022-09-09T13:06:20;2.30;;;1.57;;
3873;SDS011;1952;50.872;6.692;2022-09-09T13:11:41;1.60;;;1.20;;
3873;SDS011;1952;50.872;6.692;2022-09-09T13:14:26;2.80;;;1.80;;
3873;SDS011;1952;50.872;6.692;2022-09-09T13:17:05;3.30;;;1.48;;
3873;SDS011;1952;50.872;6.692;2022-09-09T13:19:45;4.57;;;1.90;;
3873;SDS011;1952;50.872;6.692;2022-09-09T13:22:21;3.67;;;2.07;;
3873;SDS011;1952;50.872;6.692;2022-09-09T13:25:01;1.60;;;1.50;;
3873;SDS011;1952;50.872;6.692;2022-09-09T13:27:33;1.97;;;1.37;;
3873;SDS011;1952;50.872;6.692;2022-09-09T13:30:19;2.33;;;1.40;;
3873;SDS011;1952;50.872;6.692;2022-09-09T13:32:59;1.93;;;1.13;;
3873;SDS011;1952;50.872;6.692;2022-09-09T13:39:25;2.07;;;1.67;;
3873;SDS011;1952;50.872;6.692;2022-09-09T13:42:21;2.70;;;1.40;;
3873;SDS011;1952;50.872;6.692;2022-09-09T13:44:57;2.40;;;1.27;;
3873;SDS011;1952;50.872;6.692;2022-09-09T13:47:32;3.10;;;1.70;;
3873;SDS011;1952;50.872;6.692;2022-09-09T13:50:09;1.73;;;1.53;;
3873;SDS011;1952;50.872;6.692;2022-09-09T13:52:52;3.57;;;1.83;;
3873;SDS011;1952;50.872;6.692;2022-09-09T13:55:28;5.60;;;1.70;;
3873;SDS011;1952;50.872;6.692;2022-09-09T13:57:58;1.97;;;1.83;;
3873;SDS011;1952;50.872;6.692;2022-09-09T14:00:29;3.40;;;1.90;;
3873;SDS011;1952;50.872;6.692;2022-09-09T14:02:58;3.37;;;2.20;;
3873;SDS011;1952;50.872;6.692;2022-09-09T14:05:29;4.20;;;2.37;;
3873;SDS011;1952;50.872;6.692;2022-09-09T14:08:00;6.93;;;2.83;;
3873;SDS011;1952;50.872;6.692;2022-09-09T14:10:30;3.07;;;2.20;;
3873;SDS011;1952;50.872;6.692;2022-09-09T14:12:58;2.60;;;2.03;;
3873;SDS011;1952;50.872;6.692;2022-09-09T14:15:27;1.80;;;1.70;;
3873;SDS011;1952;50.872;6.692;2022-09-09T14:18:01;2.03;;;1.83;;
3873;SDS011;1952;50.872;6.692;2022-09-09T14:20:30;4.47;;;2.37;;
3873;SDS011;1952;50.872;6.692;2022-09-09T14:23:00;3.17;;;1.88;;
3873;SDS011;1952;50.872;6.692;2022-09-09T14:25:28;1.87;;;1.77;;
3873;SDS011;1952;50.872;6.692;2022-09-09T14:27:57;2.73;;;2.03;;
3873;SDS011;1952;50.872;6.692;2022-09-09T14:30:25;3.60;;;1.90;;
3873;SDS011;1952;50.872;6.692;2022-09-09T14:32:54;2.57;;;1.80;;
3873;SDS011;1952;50.872;6.692;2022-09-09T14:35:22;2.10;;;1.90;;
3873;SDS011;1952;50.872;6.692;2022-09-09T14:37:52;2.67;;;1.73;;
3873;SDS011;1952;50.872;6.692;2022-09-09T14:40:25;2.97;;;1.70;;
3873;SDS011;1952;50.872;6.692;2022-09-09T14:42:53;2.50;;;1.90;;
3873;SDS011;1952;50.872;6.692;2022-09-09T14:45:27;1.70;;;1.60;;
3873;SDS011;1952;50.872;6.692;2022-09-09T14:47:56;1.20;;;1.10;;
3873;SDS011;1952;50.872;6.692;2022-09-09T14:50:25;3.57;;;1.60;;
3873;SDS011;1952;50.872;6.692;2022-09-09T14:52:56;3.37;;;1.43;;
3873;SDS011;1952;50.872;6.692;2022-09-09T14:55:26;1.50;;;1.40;;
3873;SDS011;1952;50.872;6.692;2022-09-09T14:57:55;2.20;;;1.80;;
3873;SDS011;1952;50.872;6.692;2022-09-09T15:00:23;1.95;;;1.40;;
3873;SDS011;1952;50.872;6.692;2022-09-09T15:02:52;2.60;;;1.83;;
3873;SDS011;1952;50.872;6.692;2022-09-09T15:05:20;3.03;;;2.60;;
3873;SDS011;1952;50.872;6.692;2022-09-09T15:07:50;1.80;;;1.60;;
3873;SDS011;1952;50.872;6.692;2022-09-09T15:10:23;3.40;;;1.80;;
3873;SDS011;1952;50.872;6.692;2022-09-09T15:13:07;2.17;;;1.70;;
3873;SDS011;1952;50.872;6.692;2022-09-09T15:15:34;2.77;;;1.90;;
3873;SDS011;1952;50.872;6.692;2022-09-09T15:18:04;2.70;;;1.80;;
3873;SDS011;1952;50.872;6.692;2022-09-09T15:20:33;2.70;;;1.67;;
3873;SDS011;1952;50.872;6.692;2022-09-09T15:23:05;4.30;;;2.27;;
3873;SDS011;1952;50.872;6.692;2022-09-09T15:25:35;2.90;;;2.13;;
3873;SDS011;1952;50.872;6.692;2022-09-09T15:28:04;3.33;;;2.20;;
3873;SDS011;1952;50.872;6.692;2022-09-09T15:30:34;1.93;;;1.70;;
3873;SDS011;1952;50.872;6.692;2022-09-09T15:33:07;2.20;;;1.83;;
3873;SDS011;1952;50.872;6.692;2022-09-09T15:35:40;2.10;;;1.90;;
3873;SDS011;1952;50.872;6.692;2022-09-09T15:38:09;3.23;;;1.83;;
3873;SDS011;1952;50.872;6.692;2022-09-09T15:40:39;1.30;;;1.20;;
3873;SDS011;1952;50.872;6.692;2022-09-09T15:43:12;3.13;;;1.70;;
3873;SDS011;1952;50.872;6.692;2022-09-09T15:45:42;2.23;;;1.30;;
3873;SDS011;1952;50.872;6.692;2022-09-09T15:48:11;2.33;;;1.73;;
3873;SDS011;1952;50.872;6.692;2022-09-09T15:50:41;3.63;;;1.60;;
3873;SDS011;1952;50.872;6.692;2022-09-09T15:53:14;1.70;;;1.60;;
3873;SDS011;1952;50.872;6.692;2022-09-09T15:55:46;3.13;;;1.50;;
3873;SDS011;1952;50.872;6.692;2022-09-09T15:58:18;1.80;;;1.43;;
3873;SDS011;1952;50.872;6.692;2022-09-09T16:00:48;1.40;;;1.30;;
3873;SDS011;1952;50.872;6.692;2022-09-09T16:03:16;1.53;;;1.43;;
3873;SDS011;1952;50.872;6.692;2022-09-09T16:05:50;3.07;;;1.80;;
3873;SDS011;1952;50.872;6.692;2022-09-09T16:08:18;1.80;;;1.70;;
3873;SDS011;1952;50.872;6.692;2022-09-09T16:10:47;2.10;;;1.80;;
3873;SDS011;1952;50.872;6.692;2022-09-09T16:13:15;2.80;;;1.80;;
3873;SDS011;1952;50.872;6.692;2022-09-09T16:15:43;1.30;;;1.13;;
3873;SDS011;1952;50.872;6.692;2022-09-09T16:18:18;2.07;;;1.63;;
3873;SDS011;1952;50.872;6.692;2022-09-09T16:20:52;2.10;;;1.60;;
3873;SDS011;1952;50.872;6.692;2022-09-09T16:23:26;2.37;;;2.00;;
3873;SDS011;1952;50.872;6.692;2022-09-09T16:25:59;2.00;;;1.70;;
3873;SDS011;1952;50.872;6.692;2022-09-09T16:28:31;3.17;;;1.85;;
3873;SDS011;1952;50.872;6.692;2022-09-09T16:31:03;2.03;;;1.80;;
3873;SDS011;1952;50.872;6.692;2022-09-09T16:33:38;2.10;;;2.00;;
3873;SDS011;1952;50.872;6.692;2022-09-09T16:36:07;2.23;;;1.60;;
3873;SDS011;1952;50.872;6.692;2022-09-09T16:38:36;2.45;;;2.05;;
3873;SDS011;1952;50.872;6.692;2022-09-09T16:41:05;2.07;;;1.50;;
3873;SDS011;1952;50.872;6.692;2022-09-09T16:43:39;2.37;;;2.07;;
3873;SDS011;1952;50.872;6.692;2022-09-09T16:46:13;2.67;;;2.00;;
3873;SDS011;1952;50.872;6.692;2022-09-09T16:48:49;3.10;;;2.00;;
3873;SDS011;1952;50.872;6.692;2022-09-09T16:51:18;2.13;;;1.70;;
3873;SDS011;1952;50.872;6.692;2022-09-09T16:53:49;2.00;;;1.90;;
3873;SDS011;1952;50.872;6.692;2022-09-09T16:56:18;1.97;;;1.83;;
3873;SDS011;1952;50.872;6.692;2022-09-09T16:58:49;2.40;;;2.20;;
3873;SDS011;1952;50.872;6.692;2022-09-09T17:01:23;2.20;;;2.00;;
3873;SDS011;1952;50.872;6.692;2022-09-09T17:03:58;2.70;;;1.90;;
3873;SDS011;1952;50.872;6.692;2022-09-09T17:06:28;2.23;;;1.80;;
3873;SDS011;1952;50.872;6.692;2022-09-09T17:09:02;1.83;;;1.73;;
3873;SDS011;1952;50.872;6.692;2022-09-09T17:11:37;2.83;;;1.90;;
3873;SDS011;1952;50.872;6.692;2022-09-09T17:14:06;2.07;;;1.90;;
3873;SDS011;1952;50.872;6.692;2022-09-09T17:16:36;2.80;;;1.93;;
3873;SDS011;1952;50.872;6.692;2022-09-09T17:19:12;2.00;;;1.50;;
3873;SDS011;1952;50.872;6.692;2022-09-09T17:21:45;2.07;;;1.87;;
3873;SDS011;1952;50.872;6.692;2022-09-09T17:24:34;1.60;;;1.50;;
3873;SDS011;1952;50.872;6.692;2022-09-09T17:27:04;2.23;;;2.03;;
3873;SDS011;1952;50.872;6.692;2022-09-09T17:29:33;3.30;;;2.30;;
3873;SDS011;1952;50.872;6.692;2022-09-09T17:32:02;2.20;;;2.00;;
3873;SDS011;1952;50.872;6.692;2022-09-09T17:34:38;2.00;;;1.80;;
3873;SDS011;1952;50.872;6.692;2022-09-09T17:37:05;1.90;;;1.77;;
3873;SDS011;1952;50.872;6.692;2022-09-09T17:39:34;2.83;;;2.53;;
3873;SDS011;1952;50.872;6.692;2022-09-09T17:42:02;2.20;;;2.03;;
3873;SDS011;1952;50.872;6.692;2022-09-09T17:44:38;5.43;;;1.80;;
3873;SDS011;1952;50.872;6.692;2022-09-09T17:47:07;1.93;;;1.83;;
3873;SDS011;1952;50.872;6.692;2022-09-09T17:49:36;2.80;;;1.93;;
3873;SDS011;1952;50.872;6.692;2022-09-09T17:52:05;4.40;;;2.63;;
3873;SDS011;1952;50.872;6.692;2022-09-09T17:54:33;2.30;;;1.90;;
3873;SDS011;1952;50.872;6.692;2022-09-09T18:35:28;4.70;;;3.10;;
3873;SDS011;1952;50.872;6.692;2022-09-09T18:37:56;2.80;;;2.60;;
3873;SDS011;1952;50.872;6.692;2022-09-09T18:40:38;2.63;;;2.43;;
3873;SDS011;1952;50.872;6.692;2022-09-09T18:43:34;3.90;;;2.93;;
3873;SDS011;1952;50.872;6.692;2022-09-09T18:46:18;2.73;;;2.53;;
3873;SDS011;1952;50.872;6.692;2022-09-09T18:48:53;3.87;;;3.50;;
3873;SDS011;1952;50.872;6.692;2022-09-09T18:51:24;6.50;;;3.63;;
3873;SDS011;1952;50.872;6.692;2022-09-09T18:54:01;3.40;;;2.70;;
3873;SDS011;1952;50.872;6.692;2022-09-09T18:56:38;3.80;;;2.70;;
3873;SDS011;1952;50.872;6.692;2022-09-09T18:59:12;3.50;;;3.20;;
3873;SDS011;1952;50.872;6.692;2022-09-09T19:01:58;3.63;;;3.20;;
3873;SDS011;1952;50.872;6.692;2022-09-09T19:04:44;3.27;;;2.80;;
3873;SDS011;1952;50.872;6.692;2022-09-09T19:07:15;2.67;;;2.47;;
3873;SDS011;1952;50.872;6.692;2022-09-09T19:10:06;2.77;;;2.57;;
3873;SDS011;1952;50.872;6.692;2022-09-09T19:12:40;3.50;;;2.77;;
3873;SDS011;1952;50.872;6.692;2022-09-09T19:15:08;2.87;;;2.67;;
3873;SDS011;1952;50.872;6.692;2022-09-09T19:17:37;3.10;;;2.80;;
3873;SDS011;1952;50.872;6.692;2022-09-09T19:20:13;4.90;;;2.63;;
3873;SDS011;1952;50.872;6.692;2022-09-09T19:23:02;3.23;;;2.90;;
3873;SDS011;1952;50.872;6.692;2022-09-09T19:25:37;2.70;;;2.50;;